CheckWX is a tool to help pilots better visualize weather data.  It is not intended as a substitute for an official pre-flight weather briefing.

10:56:50 UTC

DAFH METAR
Hassi R'Mel Airport
Algeria
Current

57 mins ago

DAFH 041000Z 10008KT CAVOK 15/05 Q1019
Observed
Apr-4 @ 10:00 UTC
Wind
  • 100° at 8 KTS
Visibility
10,000+ meters
Flight Rules
VFR
Cloud Levels
  • Clear skies
Temperature
15°C / 59°F
Dewpoint
C / 41°F
Humidity
51%
Altimeter
30.09" Hg
Pressure
1018.92 hPa
Previous

2 hours ago

DAFH 040900Z 03014KT CAVOK 13/05 Q1019
Observed
Apr-4 @ 09:00 UTC
Wind
  • 030° at 14 KTS
Visibility
10,000+ meters
Flight Rules
VFR
Cloud Levels
  • Clear skies
Temperature
13°C / 55°F
Dewpoint
C / 41°F
Humidity
59%
Altimeter
30.09" Hg
Pressure
1018.92 hPa
Previous

3 hours ago

DAFH 040800Z 06010KT CAVOK 12/06 Q1018
Observed
Apr-4 @ 08:00 UTC
Wind
  • 060° at 10 KTS
Visibility
10,000+ meters
Flight Rules
VFR
Cloud Levels
  • Clear skies
Temperature
12°C / 54°F
Dewpoint
C / 43°F
Humidity
67%
Altimeter
30.06" Hg
Pressure
1017.92 hPa